DURO2: Washita River Durwood, OK

Data processed at Sat Aug 19 2017 21:53


All information presented herein is the property of the government of the United States of America and may be revised or deleted at any time without prior notice.
Dissemination of this information without the expressed written consent of the Public Affairs Office, Tulsa District U.S. Army Corps of Engineers is strictly prohibited.
These data are gathered electronically and, as presented, have not undergone any form of quality control. These data are not guaranteed to be valid or correct.
Go to home page.
Go to station list.

Upstream stations:

Downstream station:
Previous Day
Next Day
Current Day
    
SHEF ID:       DURO2     Washita River near Dickson, OK
STATION TYPE:  

               PRECIP PRECIP(A)     STAGE  RIV-FLOW  BAT-LOAD
                   in        in        ft       cfs      volt
              Ccp-Rev   Ccp-Rev   Ccp-Rev   Ccp-Rev   Ccp-Rev
(US/Central)
08/19 00:00      0.00      ----     10.46      2891     12.57
08/19 01:00      0.00      ----     10.36      2792     12.57
08/19 02:00      0.00      ----     10.26      2693     12.57
08/19 03:00      0.00      ----     10.18      2616     12.57
08/19 04:00      0.00      ----     10.10      2539     12.57
08/19 05:00      0.00      ----     10.02      2463     12.57
08/19 06:00      0.00      ----      9.93      2379     12.57
08/19 07:00      0.00      ----      9.86      2315     12.57
08/19 08:00      0.00      ----      9.78      2244     12.57
08/19 09:00      0.00      ----      9.72      2194     12.57
08/19 10:00      0.00      ----      9.67      2153     12.57
08/19 11:00      0.00      ----      9.57      2071     12.57
08/19 12:00      0.00      ----      9.53      2039     12.65
08/19 13:00      0.00      ----      9.45      1974     12.65
08/19 14:00      0.00      ----      9.39      1927     12.65
08/19 15:00      0.00      ----      9.35      1895     12.65
08/19 16:00      0.00      ----      9.29      1849     12.65
08/19 17:00      0.00      ----      9.21      1787     12.65
08/19 18:00      0.00      ----      9.19      1772     12.65
08/19 19:00      0.00      ----      9.15      1741     12.65
08/19 20:00      0.00      ----      9.13      1726     12.65
08/19 21:00      ----      ----      ----      ----      ----
08/19 22:00      ----      ----      ----      ----      ----
08/19 23:00      ----      ----      ----      ----      ----